Time,TemperatureF,DewpointF,PressureIn,WindDirection,WindDirectionDegrees,WindSpeedMPH,WindSpeedGustMPH,Humidity,HourlyPrecipIn,Conditions,Clouds,dailyrainin,SolarRadiationWatts/m^2,SoftwareType,DateUTC
2013-03-06 00:22:00,35.0,20.0,-100.00,NW,322,12.0,23.0,53,0.00,,,0.17,1.000000,,2013-03-06 06:22:00,
2013-03-06 00:32:00,35.0,20.0,-100.00,NW,322,12.0,23.0,53,0.00,,,0.17,1.000000,,2013-03-06 06:32:00,
2013-03-06 00:42:00,35.0,20.0,-100.00,NW,322,12.0,23.0,53,0.00,,,0.17,1.000000,,2013-03-06 06:42:00,
2013-03-06 00:52:00,35.0,20.0,-100.00,NW,322,12.0,23.0,53,0.00,,,0.17,1.000000,,2013-03-06 06:52:00,
2013-03-06 01:22:00,34.0,20.0,-100.00,NW,325,18.0,37.0,55,0.00,,,0.17,1.000000,,2013-03-06 07:22:00,
2013-03-06 01:32:00,34.0,20.0,-100.00,NW,325,18.0,37.0,55,0.00,,,0.17,1.000000,,2013-03-06 07:32:00,
2013-03-06 01:42:00,34.0,20.0,-100.00,NW,325,18.0,37.0,55,0.00,,,0.17,1.000000,,2013-03-06 07:42:00,
2013-03-06 01:52:00,34.0,20.0,-100.00,NW,325,18.0,37.0,55,0.00,,,0.17,1.000000,,2013-03-06 07:52:00,
2013-03-06 02:11:00,34.0,20.0,-100.00,NNW,328,12.0,29.0,57,0.00,,,0.17,1.000000,,2013-03-06 08:11:00,
2013-03-06 02:21:00,34.0,20.0,-100.00,NNW,328,12.0,29.0,57,0.00,,,0.17,1.000000,,2013-03-06 08:21:00,
2013-03-06 02:32:00,34.0,20.0,-100.00,NNW,328,12.0,29.0,57,0.00,,,0.17,1.000000,,2013-03-06 08:32:00,
2013-03-06 02:42:00,34.0,20.0,-100.00,NNW,328,12.0,29.0,57,0.00,,,0.17,1.000000,,2013-03-06 08:42:00,
2013-03-06 02:52:00,34.0,20.0,-100.00,NNW,328,12.0,29.0,57,0.00,,,0.17,1.000000,,2013-03-06 08:52:00,
2013-03-06 03:21:00,33.0,19.0,-100.00,NNW,327,12.0,27.0,57,0.00,,,0.17,1.000000,,2013-03-06 09:21:00,
2013-03-06 03:32:00,33.0,19.0,-100.00,NNW,327,12.0,27.0,57,0.00,,,0.17,1.000000,,2013-03-06 09:32:00,
2013-03-06 03:42:00,33.0,19.0,-100.00,NNW,327,12.0,27.0,57,0.00,,,0.17,1.000000,,2013-03-06 09:42:00,
2013-03-06 03:51:00,33.0,19.0,-100.00,NNW,327,12.0,27.0,57,0.00,,,0.17,1.000000,,2013-03-06 09:51:00,
2013-03-06 04:11:00,33.0,19.0,-100.00,NW,323,13.0,23.0,57,0.00,,,0.17,1.000000,,2013-03-06 10:11:00,
2013-03-06 04:22:00,33.0,19.0,-100.00,NW,323,13.0,23.0,57,0.00,,,0.17,1.000000,,2013-03-06 10:22:00,
2013-03-06 04:32:00,33.0,19.0,-100.00,NW,323,13.0,23.0,57,0.00,,,0.17,1.000000,,2013-03-06 10:32:00,
2013-03-06 04:42:00,33.0,19.0,-100.00,NW,323,13.0,23.0,57,0.00,,,0.17,1.000000,,2013-03-06 10:42:00,
2013-03-06 04:51:00,33.0,19.0,-100.00,NW,323,13.0,23.0,57,0.00,,,0.17,1.000000,,2013-03-06 10:51:00,
2013-03-06 05:11:00,33.0,19.0,-100.00,NNW,331,11.0,22.0,57,0.00,,,0.17,1.000000,,2013-03-06 11:11:00,
2013-03-06 05:22:00,33.0,19.0,-100.00,NNW,331,11.0,22.0,57,0.00,,,0.17,1.000000,,2013-03-06 11:22:00,
2013-03-06 05:32:00,33.0,19.0,-100.00,NNW,331,11.0,22.0,57,0.00,,,0.17,1.000000,,2013-03-06 11:32:00,
2013-03-06 05:42:00,33.0,19.0,-100.00,NNW,331,11.0,22.0,57,0.00,,,0.17,1.000000,,2013-03-06 11:42:00,
2013-03-06 05:52:00,33.0,19.0,-100.00,NNW,331,11.0,22.0,57,0.00,,,0.17,1.000000,,2013-03-06 11:52:00,
2013-03-06 06:11:00,33.0,20.0,-100.00,NNW,332,11.0,20.0,59,0.00,,,0.17,1.000000,,2013-03-06 12:11:00,
2013-03-06 06:22:00,33.0,20.0,-100.00,NNW,332,11.0,20.0,59,0.00,,,0.17,1.000000,,2013-03-06 12:22:00,
2013-03-06 06:33:00,33.0,20.0,-100.00,NNW,332,11.0,20.0,59,0.00,,,0.17,1.000000,,2013-03-06 12:33:00,
2013-03-06 06:42:00,33.0,20.0,-100.00,NNW,332,11.0,20.0,59,0.00,,,0.17,1.000000,,2013-03-06 12:42:00,
2013-03-06 06:52:00,33.0,20.0,-100.00,NNW,332,11.0,20.0,59,0.00,,,0.17,1.000000,,2013-03-06 12:52:00,
2013-03-06 07:12:00,33.0,20.0,-100.00,NNW,343,15.0,23.0,58,0.00,,,-99.99,6.000000,,2013-03-06 13:12:00,
2013-03-06 07:22:00,33.0,20.0,-100.00,NNW,343,15.0,23.0,58,0.00,,,-99.99,6.000000,,2013-03-06 13:22:00,
2013-03-06 07:32:00,33.0,20.0,-100.00,NNW,343,15.0,23.0,58,0.00,,,-99.99,6.000000,,2013-03-06 13:32:00,
2013-03-06 07:42:00,33.0,20.0,-100.00,NNW,343,15.0,23.0,58,0.00,,,-99.99,6.000000,,2013-03-06 13:42:00,
2013-03-06 07:52:00,33.0,20.0,-100.00,NNW,343,15.0,23.0,58,0.00,,,-99.99,6.000000,,2013-03-06 13:52:00,
2013-03-06 08:22:00,33.0,19.0,-100.00,NNW,345,13.0,24.0,57,0.00,,,0.09,62.000000,,2013-03-06 14:22:00,
2013-03-06 08:32:00,33.0,19.0,-100.00,NNW,345,13.0,24.0,57,0.00,,,0.09,62.000000,,2013-03-06 14:32:00,
2013-03-06 08:42:00,33.0,19.0,-100.00,NNW,345,13.0,24.0,57,0.00,,,0.09,62.000000,,2013-03-06 14:42:00,
2013-03-06 08:52:00,33.0,19.0,-100.00,NNW,345,13.0,24.0,57,0.00,,,0.09,62.000000,,2013-03-06 14:52:00,
2013-03-06 09:21:00,34.0,21.0,-100.00,North,354,10.0,21.0,58,0.00,,,0.00,129.000000,,2013-03-06 15:21:00,
2013-03-06 09:32:00,34.0,21.0,-100.00,North,354,10.0,21.0,58,0.00,,,0.00,129.000000,,2013-03-06 15:32:00,
2013-03-06 09:42:00,34.0,21.0,-100.00,North,354,10.0,21.0,58,0.00,,,0.00,129.000000,,2013-03-06 15:42:00,
2013-03-06 09:52:00,34.0,21.0,-100.00,North,354,10.0,21.0,58,0.00,,,0.00,129.000000,,2013-03-06 15:52:00,
2013-03-06 10:21:00,37.0,20.0,-100.00,North,349,12.0,21.0,50,0.00,,,0.00,586.000000,,2013-03-06 16:21:00,
2013-03-06 10:32:00,37.0,20.0,-100.00,North,349,12.0,21.0,50,0.00,,,0.00,586.000000,,2013-03-06 16:32:00,
2013-03-06 10:42:00,37.0,20.0,-100.00,North,349,12.0,21.0,50,0.00,,,0.00,586.000000,,2013-03-06 16:42:00,
2013-03-06 10:52:00,37.0,20.0,-100.00,North,349,12.0,21.0,50,0.00,,,0.00,586.000000,,2013-03-06 16:52:00,
2013-03-06 11:11:00,39.0,20.0,-100.00,NNW,348,8.0,18.0,46,0.00,,,0.00,771.000000,,2013-03-06 17:11:00,
2013-03-06 11:22:00,39.0,20.0,-100.00,NNW,348,8.0,18.0,46,0.00,,,0.00,771.000000,,2013-03-06 17:22:00,
2013-03-06 11:32:00,39.0,20.0,-100.00,NNW,348,8.0,18.0,46,0.00,,,0.00,771.000000,,2013-03-06 17:32:00,
2013-03-06 11:42:00,39.0,20.0,-100.00,NNW,348,8.0,18.0,46,0.00,,,0.00,771.000000,,2013-03-06 17:42:00,
2013-03-06 11:52:00,39.0,20.0,-100.00,NNW,348,8.0,18.0,46,0.00,,,0.00,771.000000,,2013-03-06 17:52:00,
2013-03-06 12:28:00,42.0,22.0,-100.00,NNW,343,6.0,17.0,44,0.00,,,0.00,863.000000,,2013-03-06 18:28:00,
2013-03-06 12:42:00,42.0,22.0,-100.00,NNW,343,6.0,17.0,44,0.00,,,0.00,863.000000,,2013-03-06 18:42:00,
2013-03-06 12:52:00,42.0,22.0,-100.00,NNW,343,6.0,17.0,44,0.00,,,0.00,863.000000,,2013-03-06 18:52:00,
2013-03-06 13:22:00,44.0,22.0,-100.00,North,349,8.0,15.0,41,0.00,,,0.00,889.000000,,2013-03-06 19:22:00,
2013-03-06 13:32:00,44.0,22.0,-100.00,North,349,8.0,15.0,41,0.00,,,0.00,889.000000,,2013-03-06 19:32:00,
2013-03-06 13:43:00,44.0,22.0,-100.00,North,349,8.0,15.0,41,0.00,,,0.00,889.000000,,2013-03-06 19:43:00,
2013-03-06 13:52:00,44.0,22.0,-100.00,North,349,8.0,15.0,41,0.00,,,0.00,889.000000,,2013-03-06 19:52:00,
2013-03-06 14:22:00,46.0,22.0,-100.00,NNE,22,7.0,13.0,38,0.00,,,0.00,843.000000,,2013-03-06 20:22:00,
2013-03-06 14:32:00,46.0,22.0,-100.00,NNE,22,7.0,13.0,38,0.00,,,0.00,843.000000,,2013-03-06 20:32:00,
2013-03-06 14:42:00,46.0,22.0,-100.00,NNE,22,7.0,13.0,38,0.00,,,0.00,843.000000,,2013-03-06 20:42:00,
2013-03-06 14:52:00,46.0,22.0,-100.00,NNE,22,7.0,13.0,38,0.00,,,0.00,843.000000,,2013-03-06 20:52:00,
2013-03-06 15:22:00,47.0,21.0,-100.00,NW,305,5.0,14.0,36,0.00,,,0.00,731.000000,,2013-03-06 21:22:00,
2013-03-06 15:32:00,47.0,21.0,-100.00,NW,305,5.0,14.0,36,0.00,,,0.00,731.000000,,2013-03-06 21:32:00,
2013-03-06 15:42:00,47.0,21.0,-100.00,NW,305,5.0,14.0,36,0.00,,,0.00,731.000000,,2013-03-06 21:42:00,
2013-03-06 15:51:00,47.0,21.0,-100.00,NW,305,5.0,14.0,36,0.00,,,0.00,731.000000,,2013-03-06 21:51:00,
2013-03-06 16:22:00,48.0,22.0,-100.00,NNE,17,4.0,12.0,35,0.00,,,0.00,556.000000,,2013-03-06 22:22:00,
2013-03-06 16:32:00,48.0,22.0,-100.00,NNE,17,4.0,12.0,35,0.00,,,0.00,556.000000,,2013-03-06 22:32:00,
2013-03-06 16:42:00,48.0,22.0,-100.00,NNE,17,4.0,12.0,35,0.00,,,0.00,556.000000,,2013-03-06 22:42:00,
2013-03-06 16:51:00,48.0,22.0,-100.00,NNE,17,4.0,12.0,35,0.00,,,0.00,556.000000,,2013-03-06 22:51:00,
2013-03-06 17:21:00,47.0,21.0,-100.00,North,356,7.0,12.0,36,0.00,,,-99.99,324.000000,,2013-03-06 23:21:00,
2013-03-06 17:32:00,47.0,21.0,-100.00,North,356,7.0,12.0,36,0.00,,,-99.99,324.000000,,2013-03-06 23:32:00,
2013-03-06 17:42:00,47.0,21.0,-100.00,North,356,7.0,12.0,36,0.00,,,-99.99,324.000000,,2013-03-06 23:42:00,
2013-03-06 17:52:00,47.0,21.0,-100.00,North,356,7.0,12.0,36,0.00,,,-99.99,324.000000,,2013-03-06 23:52:00,
2013-03-06 18:21:00,44.0,23.0,-100.00,NNW,343,3.0,7.0,44,0.00,,,0.00,98.000000,,2013-03-07 00:21:00,
2013-03-06 18:32:00,44.0,23.0,-100.00,NNW,343,3.0,7.0,44,0.00,,,0.00,98.000000,,2013-03-07 00:32:00,
2013-03-06 18:42:00,44.0,23.0,-100.00,NNW,343,3.0,7.0,44,0.00,,,0.00,98.000000,,2013-03-07 00:42:00,
2013-03-06 18:52:00,44.0,23.0,-100.00,NNW,343,3.0,7.0,44,0.00,,,0.00,98.000000,,2013-03-07 00:52:00,
2013-03-06 19:11:00,39.0,23.0,-100.00,NNW,327,0.0,4.0,52,0.00,,,0.00,2.000000,,2013-03-07 01:11:00,
2013-03-06 19:21:00,39.0,23.0,-100.00,NNW,327,0.0,4.0,52,0.00,,,0.00,2.000000,,2013-03-07 01:21:00,
2013-03-06 19:32:00,39.0,23.0,-100.00,NNW,327,0.0,4.0,52,0.00,,,0.00,2.000000,,2013-03-07 01:32:00,
2013-03-06 19:42:00,39.0,23.0,-100.00,NNW,327,0.0,4.0,52,0.00,,,0.00,2.000000,,2013-03-07 01:42:00,
2013-03-06 19:51:00,39.0,23.0,-100.00,NNW,327,0.0,4.0,52,0.00,,,0.00,2.000000,,2013-03-07 01:51:00,
2013-03-06 20:11:00,35.0,24.0,-100.00,ESE,104,1.0,8.0,64,0.00,,,0.00,1.000000,,2013-03-07 02:11:00,
2013-03-06 20:21:00,35.0,24.0,-100.00,ESE,104,1.0,8.0,64,0.00,,,0.00,1.000000,,2013-03-07 02:21:00,
2013-03-06 20:32:00,35.0,24.0,-100.00,ESE,104,1.0,8.0,64,0.00,,,0.00,1.000000,,2013-03-07 02:32:00,
2013-03-06 20:41:00,35.0,24.0,-100.00,ESE,104,1.0,8.0,64,0.00,,,0.00,1.000000,,2013-03-07 02:41:00,
2013-03-06 20:51:00,35.0,24.0,-100.00,ESE,104,1.0,8.0,64,0.00,,,0.00,1.000000,,2013-03-07 02:51:00,
2013-03-06 21:11:00,34.0,25.0,-100.00,NNW,341,1.0,4.0,69,0.00,,,0.00,1.000000,,2013-03-07 03:11:00,
2013-03-06 21:21:00,34.0,25.0,-100.00,NNW,341,1.0,4.0,69,0.00,,,0.00,1.000000,,2013-03-07 03:21:00,
2013-03-06 21:32:00,34.0,25.0,-100.00,NNW,341,1.0,4.0,69,0.00,,,0.00,1.000000,,2013-03-07 03:32:00,
2013-03-06 21:42:00,34.0,25.0,-100.00,NNW,341,1.0,4.0,69,0.00,,,0.00,1.000000,,2013-03-07 03:42:00,
2013-03-06 21:52:00,34.0,25.0,-100.00,NNW,341,1.0,4.0,69,0.00,,,0.00,1.000000,,2013-03-07 03:52:00,
2013-03-06 22:11:00,31.0,26.0,-100.00,NE,44,0.0,3.0,81,0.00,,,0.00,1.000000,,2013-03-07 04:11:00,
2013-03-06 22:22:00,31.0,26.0,-100.00,NE,44,0.0,3.0,81,0.00,,,0.00,1.000000,,2013-03-07 04:22:00,
2013-03-06 22:32:00,31.0,26.0,-100.00,NE,44,0.0,3.0,81,0.00,,,0.00,1.000000,,2013-03-07 04:32:00,
2013-03-06 22:42:00,31.0,26.0,-100.00,NE,44,0.0,3.0,81,0.00,,,0.00,1.000000,,2013-03-07 04:42:00,
2013-03-06 22:51:00,31.0,26.0,-100.00,NE,44,0.0,3.0,81,0.00,,,0.00,1.000000,,2013-03-07 04:51:00,
2013-03-06 23:12:00,29.0,25.0,-100.00,East,87,0.0,2.0,83,0.00,,,0.00,1.000000,,2013-03-07 05:12:00,
2013-03-06 23:22:00,29.0,25.0,-100.00,East,87,0.0,2.0,83,0.00,,,0.00,1.000000,,2013-03-07 05:22:00,
2013-03-06 23:32:00,29.0,25.0,-100.00,East,87,0.0,2.0,83,0.00,,,0.00,1.000000,,2013-03-07 05:32:00,
2013-03-06 23:42:00,29.0,25.0,-100.00,East,87,0.0,2.0,83,0.00,,,0.00,1.000000,,2013-03-07 05:42:00,
2013-03-06 23:52:00,29.0,25.0,-100.00,East,87,0.0,2.0,83,0.00,,,0.00,1.000000,,2013-03-07 05:52:00,